Time;durP1;ratioP1;P1;durP2;ratioP2;P2;SDS_P1;SDS_P2;PMS_P1;PMS_P2;Temp;Humidity;BMP_temperature;BMP_pressure;BME280_temperature;BME280_humidity;BME280_pressure;Samples;Min_cycle;Max_cycle;Signal;HPM_P1;HPM_P2
2023/04/17 00:00:34;;;;;;;11.07;9.97;;;;;;;8.40;100.00;96934.38;5055208;28;20223;-58
2023/04/17 00:03:01;;;;;;;10.23;9.23;;;;;;;8.37;100.00;96939.91;5043410;28;20211;-58
2023/04/17 00:05:30;;;;;;;10.37;9.27;;;;;;;8.36;100.00;96927.72;5043012;28;20222;-59
2023/04/17 00:07:57;;;;;;;11.13;9.93;;;;;;;8.40;100.00;96931.75;5053943;28;20214;-59
2023/04/17 00:10:24;;;;;;;11.00;9.93;;;;;;;8.39;100.00;96928.28;5043504;28;20207;-59
2023/04/17 00:12:51;;;;;;;11.07;9.97;;;;;;;8.39;100.00;96922.19;5056690;28;20210;-59
2023/04/17 00:15:17;;;;;;;18.73;16.77;;;;;;;8.39;100.00;96927.47;5050070;28;20295;-58
2023/04/17 00:17:44;;;;;;;14.33;12.83;;;;;;;8.41;100.00;96931.63;5035836;28;20219;-57
2023/04/17 00:20:11;;;;;;;11.90;10.70;;;;;;;8.39;100.00;96927.47;5036468;28;20243;-58
2023/04/17 00:22:38;;;;;;;10.23;9.27;;;;;;;8.46;100.00;96918.09;5042102;28;20227;-65
2023/04/17 00:25:05;;;;;;;10.23;9.30;;;;;;;8.46;100.00;96916.31;5048810;28;20625;-59
2023/04/17 00:27:33;;;;;;;9.80;8.80;;;;;;;8.46;100.00;96918.09;5058587;28;20198;-59
2023/04/17 00:30:00;;;;;;;9.83;8.93;;;;;;;8.47;100.00;96919.75;5068022;28;20198;-59
2023/04/17 00:32:26;;;;;;;9.70;8.80;;;;;;;8.44;100.00;96912.09;5075808;28;20317;-59
2023/04/17 00:34:53;;;;;;;9.63;8.63;;;;;;;8.45;100.00;96913.78;5058086;28;20247;-59
2023/04/17 00:37:19;;;;;;;9.93;8.93;;;;;;;8.52;100.00;96914.13;5040724;28;20211;-59
2023/04/17 00:39:46;;;;;;;9.73;8.83;;;;;;;8.53;100.00;96918.44;5036246;28;20222;-58
2023/04/17 00:42:12;;;;;;;11.13;9.93;;;;;;;8.46;100.00;96907.56;5038807;28;20228;-58
2023/04/17 00:44:40;;;;;;;9.97;8.97;;;;;;;8.38;100.00;96908.16;5053966;28;20639;-59
2023/04/17 00:47:08;;;;;;;10.70;9.70;;;;;;;8.36;100.00;96904.00;5046112;28;20212;-57
2023/04/17 00:49:35;;;;;;;10.50;9.50;;;;;;;8.38;100.00;96905.53;5037159;28;20208;-58
2023/04/17 00:52:01;;;;;;;10.57;9.57;;;;;;;8.39;100.00;96903.75;5047479;28;21170;-58
2023/04/17 00:54:30;;;;;;;11.07;9.87;;;;;;;8.38;100.00;96905.53;5045269;28;20242;-59
2023/04/17 00:56:57;;;;;;;10.30;9.30;;;;;;;8.35;100.00;96897.88;5052931;28;20871;-58
2023/04/17 00:59:24;;;;;;;10.57;8.93;;;;;;;8.36;100.00;96902.16;5035073;28;20244;-59
2023/04/17 01:01:52;;;;;;;10.00;9.07;;;;;;;8.38;100.00;96895.00;5052536;28;20223;-59
2023/04/17 01:04:19;;;;;;;10.57;9.57;;;;;;;8.34;100.00;96890.09;5045588;28;20212;-59
2023/04/17 01:06:46;;;;;;;12.07;9.67;;;;;;;8.31;100.00;96888.53;5039466;28;20219;-58
2023/04/17 01:09:13;;;;;;;10.73;9.63;;;;;;;8.33;100.00;96885.75;5055549;28;20287;-59
2023/04/17 01:11:40;;;;;;;10.40;8.60;;;;;;;8.37;100.00;96884.56;5038568;28;20660;-58
2023/04/17 01:14:06;;;;;;;11.03;9.60;;;;;;;8.37;100.00;96884.56;5046449;28;20537;-59
2023/04/17 01:16:34;;;;;;;10.23;9.23;;;;;;;8.39;100.00;96880.03;5038105;28;20216;-59
2023/04/17 01:19:02;;;;;;;10.73;9.63;;;;;;;8.41;100.00;96884.19;5035154;28;20204;-58
2023/04/17 01:21:28;;;;;;;10.07;8.80;;;;;;;8.46;100.00;96882.03;5035360;28;20408;-58
2023/04/17 01:23:55;;;;;;;9.80;8.93;;;;;;;8.46;100.00;96882.03;5039248;28;20208;-58
2023/04/17 01:26:24;;;;;;;10.70;9.70;;;;;;;8.53;100.00;96882.38;5041066;28;20514;-59
2023/04/17 01:28:51;;;;;;;10.57;9.57;;;;;;;8.45;100.00;96883.00;5042831;28;20203;-59
2023/04/17 01:31:18;;;;;;;10.93;9.83;;;;;;;8.42;100.00;96879.78;5035430;28;20261;-59
2023/04/17 01:33:44;;;;;;;10.53;9.43;;;;;;;8.44;100.00;96877.84;5035157;28;20240;-59
2023/04/17 01:36:11;;;;;;;10.27;9.17;;;;;;;8.46;100.00;96875.94;5054690;28;20221;-58
2023/04/17 01:38:38;;;;;;;11.67;9.57;;;;;;;8.44;100.00;96878.66;5041584;28;20212;-58
2023/04/17 01:41:08;;;;;;;10.70;9.60;;;;;;;8.39;100.00;96880.88;5035193;28;20223;-58
2023/04/17 01:43:38;;;;;;;11.10;10.00;;;;;;;8.41;100.00;96880.72;5035279;28;20208;-58
2023/04/17 01:46:05;;;;;;;11.03;9.43;;;;;;;8.39;100.00;96885.28;5050549;28;20235;-58
2023/04/17 01:48:32;;;;;;;10.80;9.53;;;;;;;8.44;100.00;96885.75;5035415;28;20212;-59
2023/04/17 01:50:58;;;;;;;11.53;9.70;;;;;;;8.45;100.00;96884.78;5039600;28;20202;-58
2023/04/17 01:53:26;;;;;;;10.37;9.27;;;;;;;8.41;100.00;96883.34;5041830;28;20211;-58
2023/04/17 01:55:54;;;;;;;10.00;9.00;;;;;;;8.39;100.00;96886.13;5034720;28;20215;-58
2023/04/17 01:58:21;;;;;;;10.20;9.20;;;;;;;8.35;100.00;96876.78;5034795;28;20273;-59
2023/04/17 02:00:49;;;;;;;12.33;9.47;;;;;;;8.35;100.00;96882.06;5042228;28;20218;-59
2023/04/17 02:03:16;;;;;;;10.20;9.00;;;;;;;8.32;100.00;96877.03;5039203;28;20307;-58
2023/04/17 02:05:45;;;;;;;10.50;9.50;;;;;;;8.36;100.00;96877.63;5043221;28;20203;-59
2023/04/17 02:08:14;;;;;;;10.43;9.33;;;;;;;8.34;100.00;96872.47;5049160;28;20207;-59
2023/04/17 02:10:41;;;;;;;10.87;9.03;;;;;;;8.34;100.00;96874.28;5034850;28;20212;-58
2023/04/17 02:13:07;;;;;;;11.13;10.03;;;;;;;8.42;100.00;96869.22;5034670;28;20211;-59
2023/04/17 02:15:34;;;;;;;11.13;9.37;;;;;;;8.35;100.00;96866.25;5034878;28;20561;-59
2023/04/17 02:18:04;;;;;;;10.47;9.47;;;;;;;8.38;100.00;96862.53;5034205;28;20207;-59
2023/04/17 02:20:31;;;;;;;10.17;9.17;;;;;;;8.40;100.00;96863.22;5034326;28;20544;-59
2023/04/17 02:22:58;;;;;;;10.60;9.60;;;;;;;8.38;100.00;96866.00;5038143;28;20277;-59
2023/04/17 02:25:24;;;;;;;10.17;9.13;;;;;;;8.42;100.00;96864.81;5034563;28;20215;-59
2023/04/17 02:27:51;;;;;;;10.10;9.10;;;;;;;8.36;100.00;96859.19;5034504;28;20208;-59
2023/04/17 02:30:17;;;;;;;10.87;9.00;;;;;;;8.40;100.00;96865.84;5034328;28;20628;-57
2023/04/17 02:32:44;;;;;;;10.33;9.33;;;;;;;8.40;100.00;96864.06;5052518;28;20269;-59
2023/04/17 02:35:12;;;;;;;9.13;8.23;;;;;;;8.38;100.00;96868.63;5042660;28;20236;-59
2023/04/17 02:37:38;;;;;;;10.37;9.27;;;;;;;8.38;100.00;96867.78;5039561;28;20214;-59
2023/04/17 02:40:06;;;;;;;10.30;9.23;;;;;;;8.42;100.00;96858.69;5043319;28;20307;-59
2023/04/17 02:42:33;;;;;;;9.87;8.87;;;;;;;8.45;100.00;96871.59;5034318;28;20231;-58
2023/04/17 02:44:59;;;;;;;10.60;9.37;;;;;;;8.46;100.00;96860.13;5045957;28;20202;-59
2023/04/17 02:47:26;;;;;;;10.07;9.03;;;;;;;8.45;100.00;96858.44;5038121;28;20212;-59
2023/04/17 02:49:54;;;;;;;9.80;8.80;;;;;;;8.54;100.00;96864.78;5034073;28;20208;-59
2023/04/17 02:52:22;;;;;;;9.27;8.37;;;;;;;8.54;100.00;96865.56;5047941;28;20558;-58
2023/04/17 02:54:48;;;;;;;9.27;8.37;;;;;;;8.49;100.00;96859.88;5034259;28;20211;-58
2023/04/17 02:57:15;;;;;;;9.70;8.73;;;;;;;8.47;100.00;96856.50;5041805;28;20299;-59
2023/04/17 02:59:41;;;;;;;9.07;8.17;;;;;;;8.49;100.00;96859.88;5048172;28;20207;-58
2023/04/17 03:02:08;;;;;;;9.53;8.53;;;;;;;8.45;100.00;96858.44;5058105;28;20327;-58
2023/04/17 03:04:34;;;;;;;9.17;8.27;;;;;;;8.43;100.00;96860.38;5033509;28;20298;-59
2023/04/17 03:07:01;;;;;;;9.47;8.10;;;;;;;8.44;100.00;96862.03;5036512;28;20212;-58
2023/04/17 03:09:29;;;;;;;9.30;8.40;;;;;;;8.42;100.00;96856.06;5042545;28;20200;-59
2023/04/17 03:11:56;;;;;;;9.93;9.03;;;;;;;8.49;100.00;96855.44;5034440;28;20214;-59
2023/04/17 03:14:22;;;;;;;8.77;7.87;;;;;;;8.47;100.00;96854.69;5034971;28;20558;-59
2023/04/17 03:16:49;;;;;;;9.90;8.90;;;;;;;8.44;100.00;96848.84;5037926;28;20214;-59
2023/04/17 03:19:16;;;;;;;9.50;8.60;;;;;;;8.47;100.00;96856.50;5049956;28;20294;-59
2023/04/17 03:21:42;;;;;;;9.23;8.30;;;;;;;8.50;100.00;96851.00;5046326;28;20234;-59
2023/04/17 03:24:10;;;;;;;9.73;8.70;;;;;;;8.49;100.00;96850.16;5057564;28;20223;-59
2023/04/17 03:26:38;;;;;;;10.87;8.93;;;;;;;8.52;100.00;96849.06;5045632;28;20222;-59
2023/04/17 03:29:04;;;;;;;9.43;8.43;;;;;;;8.49;100.00;96852.78;5058579;28;20207;-59
2023/04/17 03:31:31;;;;;;;9.50;8.60;;;;;;;8.44;100.00;96851.47;5046102;28;20276;-59
2023/04/17 03:33:58;;;;;;;8.67;7.87;;;;;;;8.41;100.00;96857.00;5044694;28;20706;-58
2023/04/17 03:36:25;;;;;;;8.67;7.77;;;;;;;8.36;100.00;96861.81;5057793;28;20218;-60
2023/04/17 03:38:52;;;;;;;8.93;8.03;;;;;;;8.37;100.00;96861.69;5057454;28;20298;-60
2023/04/17 03:41:18;;;;;;;9.43;8.53;;;;;;;8.37;100.00;96861.69;5058450;28;20248;-59
2023/04/17 03:43:49;;;;;;;9.37;8.47;;;;;;;8.41;100.00;96868.38;5057355;28;20265;-59
2023/04/17 03:46:17;;;;;;;9.37;8.17;;;;;;;8.40;100.00;96864.06;5065421;28;20202;-59
2023/04/17 03:48:43;;;;;;;9.70;8.70;;;;;;;8.42;100.00;96866.59;5056988;28;20215;-59
2023/04/17 03:51:10;;;;;;;10.97;8.50;;;;;;;8.44;100.00;96872.56;5058746;28;20199;-59
2023/04/17 03:53:36;;;;;;;8.57;7.80;;;;;;;8.42;100.00;96870.06;5044784;28;20211;-58
2023/04/17 03:56:03;;;;;;;9.00;8.10;;;;;;;8.44;100.00;96865.50;5056334;28;20207;-59
2023/04/17 03:58:30;;;;;;;9.57;8.37;;;;;;;8.46;100.00;96875.94;5056735;28;20219;-59
2023/04/17 04:01:00;;;;;;;10.37;8.50;;;;;;;8.49;100.00;96873.88;5057071;28;20203;-58
2023/04/17 04:03:27;;;;;;;9.80;8.80;;;;;;;8.44;100.00;96862.03;5056564;28;20517;-58
2023/04/17 04:05:54;;;;;;;8.47;7.67;;;;;;;8.40;100.00;96868.50;5057234;28;20217;-58
2023/04/17 04:08:20;;;;;;;8.83;7.87;;;;;;;8.43;100.00;96865.63;5053287;28;20203;-59
2023/04/17 04:10:47;;;;;;;8.40;7.33;;;;;;;8.44;100.00;96862.03;5048074;28;20272;-59
2023/04/17 04:13:13;;;;;;;10.23;8.80;;;;;;;8.44;100.00;96865.50;5052621;28;20219;-58
2023/04/17 04:15:40;;;;;;;9.13;8.23;;;;;;;8.43;100.00;96860.38;5047832;28;20651;-58
2023/04/17 04:18:08;;;;;;;8.97;8.07;;;;;;;8.46;100.00;96873.28;5056118;28;20207;-59
2023/04/17 04:20:34;;;;;;;10.37;9.27;;;;;;;8.46;100.00;96866.22;5045844;28;20215;-58
2023/04/17 04:23:02;;;;;;;11.60;10.00;;;;;;;8.38;100.00;96867.78;5040783;28;20231;-58
2023/04/17 04:25:28;;;;;;;11.23;8.60;;;;;;;8.32;100.00;96863.03;5036544;28;20218;-58
2023/04/17 04:27:55;;;;;;;9.47;8.13;;;;;;;8.32;100.00;96868.31;5041468;28;20207;-58
2023/04/17 04:30:24;;;;;;;8.33;7.63;;;;;;;8.30;100.00;96865.78;5056544;28;20203;-58
2023/04/17 04:32:51;;;;;;;9.47;8.43;;;;;;;8.28;100.00;96874.75;5037469;28;20208;-59
2023/04/17 04:35:19;;;;;;;8.53;7.63;;;;;;;8.34;100.00;96874.28;5034980;28;20576;-58
2023/04/17 04:37:46;;;;;;;9.00;7.97;;;;;;;8.34;100.00;96866.38;5036664;28;20299;-59
2023/04/17 04:40:13;;;;;;;9.67;8.67;;;;;;;8.31;100.00;96870.09;5036562;28;20242;-62
2023/04/17 04:42:41;;;;;;;9.70;8.70;;;;;;;8.33;100.00;96868.16;5055311;28;20219;-58
2023/04/17 04:45:09;;;;;;;9.93;8.93;;;;;;;8.37;100.00;96871.38;5057737;28;20199;-59
2023/04/17 04:47:36;;;;;;;10.60;9.17;;;;;;;8.41;100.00;96872.81;5037637;28;20203;-58
2023/04/17 04:50:02;;;;;;;9.63;8.73;;;;;;;8.43;100.00;96870.91;5048615;28;20203;-58
2023/04/17 04:52:30;;;;;;;8.77;7.97;;;;;;;8.42;100.00;96866.59;5046043;28;20207;-58
2023/04/17 04:54:57;;;;;;;7.57;6.87;;;;;;;8.44;100.00;96876.03;5036072;28;20234;-58
2023/04/17 04:57:23;;;;;;;7.07;6.40;;;;;;;8.43;100.00;96877.00;5036140;28;20227;-58
2023/04/17 04:59:52;;;;;;;6.30;5.70;;;;;;;8.47;100.00;96872.31;5036665;28;20302;-57
2023/04/17 05:02:18;;;;;;;5.30;4.80;;;;;;;8.48;100.00;96879.25;5048052;28;20227;-58
2023/04/17 05:04:46;;;;;;;4.90;4.40;;;;;;;8.48;100.00;96879.25;5048652;28;20210;-58
2023/04/17 05:07:13;;;;;;;4.27;3.97;;;;;;;8.43;100.00;96884.09;5039667;28;20212;-58
2023/04/17 05:09:41;;;;;;;3.80;3.50;;;;;;;8.41;100.00;96884.19;5035893;28;20208;-58
2023/04/17 05:12:08;;;;;;;3.80;3.50;;;;;;;8.43;100.00;96886.72;5035651;28;20265;-57
2023/04/17 05:14:34;;;;;;;2.97;2.77;;;;;;;8.40;100.00;96886.94;5048868;28;20234;-58
2023/04/17 05:17:01;;;;;;;3.73;2.67;;;;;;;8.33;100.00;96886.59;5044166;28;20222;-58
2023/04/17 05:19:29;;;;;;;2.80;2.60;;;;;;;8.33;100.00;96891.88;5055126;28;20203;-58
2023/04/17 05:21:55;;;;;;;2.90;2.70;;;;;;;8.29;100.00;96889.63;5046497;28;20207;-57
2023/04/17 05:24:21;;;;;;;2.93;2.73;;;;;;;8.30;100.00;96889.50;5038451;28;20640;-58
2023/04/17 05:26:49;;;;;;;2.90;2.70;;;;;;;8.28;100.00;96888.78;5044440;28;20203;-58
2023/04/17 05:29:16;;;;;;;2.70;2.50;;;;;;;8.23;100.00;96888.28;5039680;28;20549;-58
2023/04/17 05:31:42;;;;;;;2.47;2.27;;;;;;;8.28;100.00;96887.91;5044700;28;20680;-58
2023/04/17 05:34:09;;;;;;;2.60;2.40;;;;;;;8.21;100.00;96897.25;5054816;28;20231;-57
2023/04/17 05:36:37;;;;;;;2.40;2.30;;;;;;;8.16;100.00;96904.69;5055375;28;20612;-59
2023/04/17 05:39:03;;;;;;;2.30;2.20;;;;;;;8.14;100.00;96901.34;5055028;28;20207;-58
2023/04/17 05:41:30;;;;;;;2.60;2.40;;;;;;;8.11;100.00;96910.34;5054876;28;20208;-59
2023/04/17 05:43:58;;;;;;;2.60;2.40;;;;;;;8.13;100.00;96904.94;5056618;28;20262;-58
2023/04/17 05:46:24;;;;;;;3.67;3.40;;;;;;;8.22;100.00;96899.75;5064001;28;20551;-59
2023/04/17 05:48:51;;;;;;;3.40;3.20;;;;;;;8.28;100.00;96901.09;5056178;28;20211;-57
2023/04/17 05:51:18;;;;;;;3.67;3.47;;;;;;;8.22;100.00;96907.66;5055836;28;20582;-58
2023/04/17 05:53:44;;;;;;;3.40;3.20;;;;;;;8.23;100.00;96906.72;5054860;28;20316;-58
2023/04/17 05:56:11;;;;;;;3.40;3.20;;;;;;;8.20;100.00;96906.13;5055382;28;20207;-58
2023/04/17 05:58:37;;;;;;;2.83;2.73;;;;;;;8.26;100.00;96913.53;5055364;28;20219;-57
2023/04/17 06:01:05;;;;;;;3.50;3.30;;;;;;;8.25;100.00;96914.50;5055234;28;20199;-57
2023/04/17 06:03:32;;;;;;;2.80;2.60;;;;;;;8.12;100.00;96917.25;5054849;28;20231;-57
2023/04/17 06:05:58;;;;;;;2.33;2.23;;;;;;;8.15;100.00;96916.19;5054728;28;20604;-58
2023/04/17 06:08:26;;;;;;;2.43;2.27;;;;;;;8.06;100.00;96914.28;5055068;28;20226;-58
2023/04/17 06:10:54;;;;;;;2.77;2.57;;;;;;;8.15;100.00;96918.84;5055566;28;20202;-57
2023/04/17 06:13:21;;;;;;;3.23;3.03;;;;;;;8.14;100.00;96911.88;5055131;28;20202;-57
2023/04/17 06:15:49;;;;;;;4.43;3.87;;;;;;;8.16;100.00;96913.44;5055169;28;20650;-58
2023/04/17 06:18:17;;;;;;;3.77;3.57;;;;;;;8.22;100.00;96920.03;5044585;28;20251;-58
2023/04/17 06:20:45;;;;;;;4.47;3.47;;;;;;;8.22;100.00;96920.84;5055403;28;20203;-58
2023/04/17 06:23:14;;;;;;;3.70;3.40;;;;;;;8.23;100.00;96914.63;5041404;28;20231;-58
2023/04/17 06:25:41;;;;;;;3.10;2.90;;;;;;;8.28;100.00;96922.16;5040023;28;20566;-58
2023/04/17 06:28:07;;;;;;;3.70;2.73;;;;;;;8.33;100.00;96920.84;5039925;28;20211;-58
2023/04/17 06:30:34;;;;;;;4.27;3.20;;;;;;;8.39;100.00;96916.91;5036159;28;20212;-58
2023/04/17 06:33:00;;;;;;;4.43;3.10;;;;;;;8.38;100.00;96926.63;5047267;28;20203;-58
2023/04/17 06:35:30;;;;;;;3.50;2.67;;;;;;;8.44;100.00;96923.47;5047125;28;20262;-58
2023/04/17 06:37:57;;;;;;;3.00;2.80;;;;;;;8.46;100.00;96923.38;5034898;28;20227;-57
2023/04/17 06:40:23;;;;;;;4.03;2.87;;;;;;;8.48;100.00;96916.16;5034719;28;20203;-58
2023/04/17 06:42:50;;;;;;;3.20;3.00;;;;;;;8.54;100.00;96913.03;5043830;28;20688;-57
2023/04/17 06:45:16;;;;;;;3.23;3.00;;;;;;;8.53;100.00;96919.28;5052935;28;20206;-58
2023/04/17 06:47:45;;;;;;;3.90;2.73;;;;;;;8.65;100.00;96918.25;5048493;28;20223;-59
2023/04/17 06:50:12;;;;;;;3.20;2.87;;;;;;;8.68;100.00;96920.66;5047190;28;20211;-57
2023/04/17 06:52:40;;;;;;;3.07;2.97;;;;;;;8.64;100.00;96924.53;5042097;28;20210;-58
2023/04/17 06:55:07;;;;;;;3.47;3.27;;;;;;;8.67;100.00;96924.28;5040796;28;20306;-58
2023/04/17 06:57:34;;;;;;;3.30;3.10;;;;;;;8.70;100.00;96920.53;5035478;28;20222;-58
2023/04/17 07:00:01;;;;;;;3.90;3.60;;;;;;;8.67;100.00;96932.19;5052090;28;20218;-58
2023/04/17 07:02:29;;;;;;;3.30;3.10;;;;;;;8.60;100.00;96931.00;5058333;28;20203;-58
2023/04/17 07:04:56;;;;;;;3.30;3.10;;;;;;;8.58;100.00;96927.63;5043558;28;20207;-58
2023/04/17 07:07:23;;;;;;;2.57;2.47;;;;;;;8.64;100.00;96935.06;5044302;28;20226;-58
2023/04/17 07:09:50;;;;;;;2.60;2.47;;;;;;;8.68;100.00;96939.09;5051828;28;20219;-58
2023/04/17 07:12:17;;;;;;;2.40;2.30;;;;;;;8.53;100.00;96939.53;5046806;28;20226;-57
2023/04/17 07:14:45;;;;;;;2.70;2.50;;;;;;;8.58;100.00;96935.53;5046294;28;20203;-58
2023/04/17 07:17:12;;;;;;;2.67;2.47;;;;;;;8.61;100.00;96935.28;5066445;28;20297;-59
2023/04/17 07:19:39;;;;;;;2.90;2.80;;;;;;;8.63;100.00;96930.75;5048163;28;20258;-59
2023/04/17 07:22:05;;;;;;;2.87;2.70;;;;;;;8.72;100.00;96937.91;5042574;28;20211;-59
2023/04/17 07:24:33;;;;;;;3.40;3.20;;;;;;;8.82;100.00;96946.72;5041117;28;20227;-60
2023/04/17 07:27:01;;;;;;;4.53;4.23;;;;;;;8.84;100.00;96944.81;5038388;28;20218;-60
2023/04/17 07:29:28;;;;;;;5.80;5.17;;;;;;;8.87;100.00;96946.38;5042725;28;20234;-60
2023/04/17 07:31:55;;;;;;;3.93;3.73;;;;;;;8.85;100.00;96945.66;5058616;28;20213;-59
2023/04/17 07:34:24;;;;;;;3.70;3.50;;;;;;;8.84;100.00;96938.72;5060044;28;20246;-59
2023/04/17 07:36:50;;;;;;;4.30;3.97;;;;;;;8.86;100.00;96937.59;5058325;28;20204;-60
2023/04/17 07:39:17;;;;;;;5.13;3.00;;;;;;;8.82;100.00;96936.19;5063516;28;20198;-60
2023/04/17 07:41:43;;;;;;;4.63;3.13;;;;;;;8.81;100.00;96941.59;5055671;28;20206;-59
2023/04/17 07:44:11;;;;;;;3.20;2.40;;;;;;;8.74;100.00;96943.91;5040075;28;20231;-59
2023/04/17 07:46:38;;;;;;;2.70;2.57;;;;;;;8.78;100.00;96939.22;5065691;28;20327;-58
2023/04/17 07:49:04;;;;;;;2.27;2.17;;;;;;;8.85;100.00;96941.22;5052679;28;20212;-59
2023/04/17 07:51:31;;;;;;;2.30;2.10;;;;;;;8.87;100.00;96949.84;5048430;28;20207;-59
2023/04/17 07:53:58;;;;;;;2.20;2.10;;;;;;;8.82;100.00;96946.72;5039506;28;20214;-58
2023/04/17 07:56:26;;;;;;;2.43;2.10;;;;;;;8.75;100.00;96945.56;5048588;28;20214;-58
2023/04/17 07:58:53;;;;;;;2.40;2.20;;;;;;;8.71;100.00;96943.31;5039073;28;20234;-58
2023/04/17 08:01:23;;;;;;;2.23;2.07;;;;;;;8.72;100.00;96951.09;5049620;28;20204;-57
2023/04/17 08:03:50;;;;;;;2.00;1.90;;;;;;;8.74;100.00;96943.91;5051510;28;20239;-59
2023/04/17 08:06:17;;;;;;;2.13;2.03;;;;;;;8.80;100.00;96942.56;5049698;28;20207;-62
2023/04/17 08:08:46;;;;;;;2.03;1.93;;;;;;;8.90;100.00;96944.31;5048029;28;20212;-59
2023/04/17 08:11:12;;;;;;;2.83;2.63;;;;;;;8.99;100.00;96948.00;5037039;28;20212;-58
2023/04/17 08:13:39;;;;;;;4.07;2.80;;;;;;;8.97;100.00;96945.50;5056622;28;20195;-59
2023/04/17 08:16:06;;;;;;;2.33;2.23;;;;;;;9.09;100.00;96948.09;5045031;28;20208;-58
2023/04/17 08:18:36;;;;;;;2.60;2.40;;;;;;;9.12;100.00;96955.75;5038408;28;20215;-57
2023/04/17 08:21:02;;;;;;;2.90;2.40;;;;;;;9.24;100.00;96946.81;5054395;28;20284;-58
2023/04/17 08:23:29;;;;;;;2.23;2.03;;;;;;;9.43;100.00;96952.22;5041867;28;20231;-57
2023/04/17 08:25:55;;;;;;;2.00;1.80;;;;;;;9.49;100.00;96949.91;5052752;28;20298;-58
2023/04/17 08:28:22;;;;;;;1.93;1.83;;;;;;;9.66;100.00;96945.88;5058789;28;20203;-58
2023/04/17 08:30:48;;;;;;;1.80;1.70;;;;;;;9.80;100.00;96958.72;5042818;28;20207;-58
2023/04/17 08:33:15;;;;;;;2.00;1.90;;;;;;;9.77;100.00;96948.44;5036309;28;20228;-58
2023/04/17 08:35:44;;;;;;;1.70;1.60;;;;;;;9.82;100.00;96950.66;5051187;28;20218;-57
2023/04/17 08:38:12;;;;;;;2.13;2.03;;;;;;;9.81;100.00;96957.75;5048447;28;20211;-57
2023/04/17 08:40:41;;;;;;;2.40;2.10;;;;;;;9.62;100.00;96957.66;5038705;28;20212;-57
2023/04/17 08:43:13;;;;;;;2.33;2.23;;;;;;;9.73;100.00;96960.22;5056415;28;20298;-58
2023/04/17 08:45:41;;;;;;;2.40;2.20;;;;;;;9.76;100.00;96959.97;5061199;28;20200;-59
2023/04/17 08:48:07;;;;;;;1.97;1.87;;;;;;;9.73;100.00;96960.22;5036201;28;20222;-59
2023/04/17 08:50:34;;;;;;;3.13;2.80;;;;;;;9.79;100.00;96959.69;5036141;28;20298;-58
2023/04/17 08:53:02;;;;;;;3.93;2.50;;;;;;;9.79;100.00;96957.06;5046236;28;20210;-59
2023/04/17 08:55:29;;;;;;;2.53;2.43;;;;;;;9.82;100.00;96959.44;5053179;28;20285;-58
2023/04/17 08:58:00;;;;;;;3.17;2.90;;;;;;;10.10;100.00;96951.75;5036421;28;20211;-58
2023/04/17 09:00:28;;;;;;;3.20;3.00;;;;;;;10.63;100.00;96944.50;5040807;28;20203;-59
2023/04/17 09:02:55;;;;;;;3.70;2.83;;;;;;;11.48;100.00;96937.53;5044431;28;20211;-58
2023/04/17 09:05:23;;;;;;;3.17;2.97;;;;;;;12.37;100.00;96947.63;5036042;28;20320;-58
2023/04/17 09:07:52;;;;;;;3.10;2.90;;;;;;;12.87;100.00;96947.22;5045506;28;20625;-59
2023/04/17 09:10:20;;;;;;;2.90;2.67;;;;;;;12.58;100.00;96943.91;5050561;28;20215;-59
2023/04/17 09:12:59;;;;;;;2.80;2.60;;;;;;;12.16;100.00;96951.50;5036264;28;20208;-58
2023/04/17 09:15:26;;;;;;;2.73;2.23;;;;;;;11.92;100.00;96947.53;5036195;28;20210;-58
2023/04/17 09:17:52;;;;;;;2.47;2.27;;;;;;;11.83;100.00;96948.38;5035810;28;20633;-58
2023/04/17 09:20:19;;;;;;;2.60;2.40;;;;;;;11.61;100.00;96948.69;5043886;28;20651;-60
2023/04/17 09:22:45;;;;;;;3.13;2.83;;;;;;;11.52;100.00;96941.59;5055784;28;20207;-59
2023/04/17 09:25:16;;;;;;;3.27;2.97;;;;;;;11.42;100.00;96938.13;5055779;28;20663;-58
2023/04/17 09:27:45;;;;;;;4.50;3.37;;;;;;;11.17;100.00;96938.69;5055749;28;20221;-59
2023/04/17 09:30:13;;;;;;;3.50;3.30;;;;;;;11.26;100.00;96935.22;5055983;28;20203;-59
2023/04/17 09:32:40;;;;;;;3.70;3.40;;;;;;;11.24;100.00;96939.78;5055821;28;20222;-59
2023/04/17 09:35:07;;;;;;;3.60;3.40;;;;;;;11.21;100.00;96940.91;5055018;28;20239;-58
2023/04/17 09:37:50;;;;;;;3.40;3.07;;;;;;;11.34;100.00;96943.25;5055743;28;20211;-59
2023/04/17 09:40:17;;;;;;;3.43;3.13;;;;;;;11.46;100.00;96944.81;5056114;28;20290;-58
2023/04/17 09:42:58;;;;;;;3.87;3.07;;;;;;;11.59;100.00;96947.97;5055249;28;20220;-57
2023/04/17 09:45:28;;;;;;;3.40;3.20;;;;;;;11.63;100.00;96940.59;5063211;28;20210;-59
2023/04/17 09:47:55;;;;;;;3.20;3.00;;;;;;;11.47;100.00;96943.84;5055404;28;20207;-62
2023/04/17 09:50:23;;;;;;;3.17;2.97;;;;;;;11.47;100.00;96934.09;5055399;28;20207;-57
2023/04/17 09:52:50;;;;;;;2.90;2.70;;;;;;;11.60;100.00;96936.41;5055612;28;20237;-59
2023/04/17 09:55:20;;;;;;;3.20;3.00;;;;;;;11.32;100.00;96932.00;5055693;28;20282;-57
2023/04/17 09:57:47;;;;;;;3.57;3.33;;;;;;;11.17;100.00;96933.38;5055317;28;20230;-62
2023/04/17 10:00:17;;;;;;;3.50;3.20;;;;;;;11.31;100.00;96925.03;5054869;28;20258;-60
2023/04/17 10:02:44;;;;;;;3.50;3.30;;;;;;;11.43;100.00;96929.19;5059211;28;20213;-59
2023/04/17 10:05:11;;;;;;;3.60;3.30;;;;;;;11.43;100.00;96930.03;5057901;28;20241;-58
2023/04/17 10:07:38;;;;;;;3.30;3.00;;;;;;;11.67;100.00;96926.09;5056175;28;20199;-58
2023/04/17 10:10:08;;;;;;;3.80;3.50;;;;;;;11.75;100.00;96924.44;5059305;28;20642;-58
2023/04/17 10:12:35;;;;;;;3.50;3.30;;;;;;;11.85;97.81;96914.66;5057476;28;20603;-59
2023/04/17 10:15:03;;;;;;;3.03;2.80;;;;;;;12.54;97.17;96916.03;5055050;28;20200;-59
2023/04/17 10:17:33;;;;;;;3.13;2.93;;;;;;;12.59;95.13;96913.75;5059420;28;20209;-63
2023/04/17 10:20:34;;;;;;;3.10;2.90;;;;;;;12.64;94.67;96907.03;5051094;28;20282;-63
2023/04/17 10:23:34;;;;;;;5.43;3.07;;;;;;;13.10;88.53;96910.50;5063911;28;20198;-60
2023/04/17 10:26:37;;;;;;;2.50;2.40;;;;;;;13.19;89.57;96907.75;5059084;28;20192;-58
2023/04/17 10:29:04;;;;;;;2.83;2.40;;;;;;;13.89;83.71;96901.47;5055285;28;20412;-62
2023/04/17 10:32:12;;;;;;;2.30;2.20;;;;;;;14.71;88.87;96897.34;5053829;28;20796;-61
2023/04/17 10:34:39;;;;;;;3.93;2.10;;;;;;;15.36;78.11;96899.13;5066490;28;20231;-60
2023/04/17 10:37:07;;;;;;;3.13;1.80;;;;;;;15.57;74.14;96893.31;5060742;28;20293;-60
2023/04/17 10:39:56;;;;;;;1.83;1.73;;;;;;;15.90;74.33;96889.63;5063278;28;20295;-60
2023/04/17 10:42:24;;;;;;;1.70;1.60;;;;;;;15.89;71.37;96885.28;5053548;28;20667;-66
2023/04/17 10:44:52;;;;;;;1.90;1.80;;;;;;;16.24;71.60;96888.50;5056373;28;20236;-63
2023/04/17 10:47:22;;;;;;;1.45;1.45;;;;;;;16.76;67.77;96884.28;5057029;28;20207;-63
2023/04/17 10:49:49;;;;;;;1.63;1.30;;;;;;;17.17;70.17;96881.38;5068912;28;20218;-62
2023/04/17 10:52:36;;;;;;;1.30;1.30;;;;;;;16.50;63.21;96872.22;5053314;28;20207;-62
2023/04/17 10:55:05;;;;;;;1.60;1.50;;;;;;;17.04;64.09;96883.81;5066806;28;20206;-66
2023/04/17 10:57:54;;;;;;;1.00;1.00;;;;;;;16.79;61.61;96883.94;5067254;28;20203;-64
2023/04/17 11:00:27;;;;;;;1.70;1.60;;;;;;;17.06;63.39;96887.13;5057640;28;20266;-65
2023/04/17 11:02:53;;;;;;;1.20;1.20;;;;;;;16.42;63.62;96883.78;5065409;28;20223;-64
2023/04/17 11:05:21;;;;;;;1.38;1.38;;;;;;;15.78;65.25;96882.97;5062165;28;20230;-63
2023/04/17 11:07:49;;;;;;;1.60;1.50;;;;;;;15.75;65.99;96877.97;5057995;28;20199;-67
2023/04/17 11:10:18;;;;;;;1.33;1.33;;;;;;;15.63;65.64;96873.97;5069746;28;20195;-63
2023/04/17 11:12:46;;;;;;;1.95;1.10;;;;;;;16.16;65.90;96875.19;5066446;28;20638;-63
2023/04/17 11:15:12;;;;;;;0.90;0.90;;;;;;;16.27;64.97;96878.31;5049784;28;20233;-61
2023/04/17 11:17:39;;;;;;;1.00;1.00;;;;;;;16.16;61.97;96869.84;5071990;28;20214;-62
2023/04/17 11:20:07;;;;;;;1.45;1.38;;;;;;;15.79;61.84;96868.63;5068395;28;20260;-59
2023/04/17 11:22:33;;;;;;;1.17;1.17;;;;;;;15.37;63.78;96873.31;5070792;28;20214;-59
2023/04/17 11:25:00;;;;;;;1.30;1.20;;;;;;;15.00;65.05;96864.97;5070203;28;20222;-58
2023/04/17 11:27:28;;;;;;;1.20;1.20;;;;;;;15.36;64.46;96864.50;5057005;28;20263;-61
2023/04/17 11:29:56;;;;;;;1.60;1.30;;;;;;;15.73;60.45;96866.63;5063001;28;20212;-59
2023/04/17 11:32:22;;;;;;;1.77;1.02;;;;;;;15.55;62.96;96855.34;5043800;28;20529;-59